Pietro Novelli — IOTQ — position and weather

sailwx.info

Track history (hours):
 
Tides and Currents Weather Stations Pressure Air Temp Water Temp Dewpoint Dewpoint Depression Visibility Wind Speed Wind Dir Waves Ship Positions

Pietro Novelli

Last reported at 2015-Mar-27 10:19 UTC. Time now 2015-Mar-31 02:05 UTC.
Position N 38°01' E 012°30'.

Length 91 m; draft 3.9 m.

Type: Ship. MMSI: 247000300.

Date/timePositionNaut miles runAvg speedWind from/ knotsBaromVisibWave heightAir tempDewpointWater temp
2015-Mar-27 10:19N 38°01' E 012°30'0 0.0
2015-Mar-27 09:25N 38°01' E 012°30'0 0.0
2015-Mar-27 08:25N 38°01' E 012°30'0 0.0
2015-Mar-27 07:31N 38°01' E 012°30'0 0.0
2015-Mar-27 06:14N 38°01' E 012°30'0 0.0
2015-Mar-27 05:32N 38°01' E 012°30'0 0.0
2015-Mar-27 04:32N 38°01' E 012°30'0 0.0
2015-Mar-27 03:32N 38°01' E 012°30'0 0.0
2015-Mar-27 02:32N 38°01' E 012°30'0 0.0
2015-Mar-27 01:20N 38°01' E 012°30'0 0.0
2015-Mar-27 00:20N 38°01' E 012°30'0 0.0
2015-Mar-26 23:20N 38°01' E 012°30'0 0.0
2015-Mar-26 21:26N 38°01' E 012°30'0 0.0
2015-Mar-26 20:26N 38°01' E 012°30'0 0.0
2015-Mar-26 19:30N 38°01' E 012°30'3 3.0
2015-Mar-26 18:34N 37°59' E 012°27'1514.7
2015-Mar-26 17:34N 37°47' E 012°18'4 0.4
2015-Mar-26 08:13N 37°43' E 012°17'913.8
2015-Mar-26 07:33N 37°52' E 012°21'12 1.3
2015-Mar-25 22:30N 38°01' E 012°30'0 0.0
2015-Mar-25 21:30N 38°01' E 012°30'0 0.0
2015-Mar-25 20:33N 38°01' E 012°30'0 0.0
2015-Mar-25 19:33N 38°01' E 012°30'9 9.3
2015-Mar-25 18:33N 37°54' E 012°22'1813.5
2015-Mar-25 17:13N 37°41' E 012°07'2414.3
2015-Mar-25 15:31N 37°16' E 012°05'1614.0
2015-Mar-25 14:21N 37°00' E 012°01'41 7.0
2015-Mar-25 08:29N 37°40' E 012°16'1313.6
2015-Mar-25 07:33N 37°52' E 012°22'1111.3
2015-Mar-25 06:33N 38°01' E 012°30'0 0.0
2015-Mar-23 17:08N 38°01' E 012°30'0 0.0
2015-Mar-23 16:33N 38°01' E 012°30'0 0.0
2015-Mar-23 15:33N 38°01' E 012°30'0 0.4
2015-Mar-23 14:33N 38°00' E 012°30'1212.3
2015-Mar-23 13:33N 37°50' E 012°21'4 0.3
2015-Mar-22 23:33N 37°46' E 012°20'1211.7
2015-Mar-22 22:33N 37°57' E 012°25'  
2015-Mar-20 12:24N 38°01' E 012°30'0 0.0
2015-Mar-20 11:18N 38°01' E 012°30'0 0.0
2015-Mar-20 10:24N 38°01' E 012°30'0 0.0
2015-Mar-20 09:24N 38°01' E 012°30'0 0.0
2015-Mar-20 08:24N 38°01' E 012°30'0 0.0
2015-Mar-20 07:34N 38°01' E 012°30'0 0.0
2015-Mar-20 06:33N 38°01' E 012°30'0 0.0
2015-Mar-20 05:33N 38°01' E 012°30'0 0.0
2015-Mar-20 04:33N 38°01' E 012°30'0 0.0
2015-Mar-20 03:33N 38°01' E 012°30'0 0.0
2015-Mar-20 02:33N 38°01' E 012°30'0 0.0
2015-Mar-20 01:33N 38°01' E 012°30'0 0.0
2015-Mar-20 00:33N 38°01' E 012°30'0 0.0
2015-Mar-19 23:33N 38°01' E 012°30'0 0.0
2015-Mar-19 22:33N 38°01' E 012°30'0 0.0
2015-Mar-19 21:33N 38°01' E 012°30'0 0.0
2015-Mar-19 20:33N 38°01' E 012°30'0 0.0
2015-Mar-19 19:33N 38°01' E 012°30'0 0.0
2015-Mar-19 18:33N 38°01' E 012°30'0 0.0
2015-Mar-19 17:33N 38°01' E 012°30'0 0.0
2015-Mar-19 16:34N 38°01' E 012°30'0 0.0
2015-Mar-19 15:33N 38°01' E 012°30'1 1.2
2015-Mar-19 14:33N 37°60' E 012°29'1212.1
2015-Mar-19 13:33N 37°50' E 012°20'3 0.2
2015-Mar-18 23:29N 37°47' E 012°19'1111.5
2015-Mar-18 22:34N 37°57' E 012°25'6 5.9
2015-Mar-18 21:34N 38°01' E 012°30'0 0.0
2015-Mar-18 20:34N 38°01' E 012°30'0 0.0
2015-Mar-18 19:34N 38°01' E 012°30'0 0.0
2015-Mar-18 18:33N 38°01' E 012°30'0 0.0
2015-Mar-18 17:34N 38°01' E 012°30'0 0.0
2015-Mar-18 16:33N 38°01' E 012°30'0 0.0
2015-Mar-18 15:33N 38°01' E 012°30'1 1.3
2015-Mar-18 14:33N 37°60' E 012°29'1111.2
2015-Mar-18 13:33N 37°51' E 012°21'1514.6
2015-Mar-18 12:33N 37°37' E 012°15'9 0.7
2015-Mar-17 23:29N 37°46' E 012°19'1213.2
2015-Mar-17 22:33N 37°57' E 012°25'  
Track history (hours):
 
Tides and Currents Weather Stations Pressure Air Temp Water Temp Dewpoint Dewpoint Depression Visibility Wind Speed Wind Dir Waves Ship Positions

Pietro Novelli

Last reported at 2015-Mar-27 10:19 UTC. Time now 2015-Mar-31 02:05 UTC.
Position N 38°01' E 012°30'.

Length 91 m; draft 3.9 m.

Type: Ship. MMSI: 247000300.

Date/timePositionNaut miles runAvg speedWind from/ knotsBaromVisibWave heightAir tempDewpointWater temp
2015-Mar-27 10:19N 38°01' E 012°30'0 0.0
2015-Mar-27 09:25N 38°01' E 012°30'0 0.0
2015-Mar-27 08:25N 38°01' E 012°30'0 0.0
2015-Mar-27 07:31N 38°01' E 012°30'0 0.0
2015-Mar-27 06:14N 38°01' E 012°30'0 0.0
2015-Mar-27 05:32N 38°01' E 012°30'0 0.0
2015-Mar-27 04:32N 38°01' E 012°30'0 0.0
2015-Mar-27 03:32N 38°01' E 012°30'0 0.0
2015-Mar-27 02:32N 38°01' E 012°30'0 0.0
2015-Mar-27 01:20N 38°01' E 012°30'0 0.0
2015-Mar-27 00:20N 38°01' E 012°30'0 0.0
2015-Mar-26 23:20N 38°01' E 012°30'0 0.0
2015-Mar-26 21:26N 38°01' E 012°30'0 0.0
2015-Mar-26 20:26N 38°01' E 012°30'0 0.0
2015-Mar-26 19:30N 38°01' E 012°30'3 3.0
2015-Mar-26 18:34N 37°59' E 012°27'1514.7
2015-Mar-26 17:34N 37°47' E 012°18'4 0.4
2015-Mar-26 08:13N 37°43' E 012°17'913.8
2015-Mar-26 07:33N 37°52' E 012°21'12 1.3
2015-Mar-25 22:30N 38°01' E 012°30'0 0.0
2015-Mar-25 21:30N 38°01' E 012°30'0 0.0
2015-Mar-25 20:33N 38°01' E 012°30'0 0.0
2015-Mar-25 19:33N 38°01' E 012°30'9 9.3
2015-Mar-25 18:33N 37°54' E 012°22'1813.5
2015-Mar-25 17:13N 37°41' E 012°07'2414.3
2015-Mar-25 15:31N 37°16' E 012°05'1614.0
2015-Mar-25 14:21N 37°00' E 012°01'41 7.0
2015-Mar-25 08:29N 37°40' E 012°16'1313.6
2015-Mar-25 07:33N 37°52' E 012°22'1111.3
2015-Mar-25 06:33N 38°01' E 012°30'0 0.0
2015-Mar-23 17:08N 38°01' E 012°30'0 0.0
2015-Mar-23 16:33N 38°01' E 012°30'0 0.0
2015-Mar-23 15:33N 38°01' E 012°30'0 0.4
2015-Mar-23 14:33N 38°00' E 012°30'1212.3
2015-Mar-23 13:33N 37°50' E 012°21'4 0.3
2015-Mar-22 23:33N 37°46' E 012°20'1211.7
2015-Mar-22 22:33N 37°57' E 012°25'  
2015-Mar-20 12:24N 38°01' E 012°30'0 0.0
2015-Mar-20 11:18N 38°01' E 012°30'0 0.0
2015-Mar-20 10:24N 38°01' E 012°30'0 0.0
2015-Mar-20 09:24N 38°01' E 012°30'0 0.0
2015-Mar-20 08:24N 38°01' E 012°30'0 0.0
2015-Mar-20 07:34N 38°01' E 012°30'0 0.0
2015-Mar-20 06:33N 38°01' E 012°30'0 0.0
2015-Mar-20 05:33N 38°01' E 012°30'0 0.0
2015-Mar-20 04:33N 38°01' E 012°30'0 0.0
2015-Mar-20 03:33N 38°01' E 012°30'0 0.0
2015-Mar-20 02:33N 38°01' E 012°30'0 0.0
2015-Mar-20 01:33N 38°01' E 012°30'0 0.0
2015-Mar-20 00:33N 38°01' E 012°30'0 0.0
2015-Mar-19 23:33N 38°01' E 012°30'0 0.0
2015-Mar-19 22:33N 38°01' E 012°30'0 0.0
2015-Mar-19 21:33N 38°01' E 012°30'0 0.0
2015-Mar-19 20:33N 38°01' E 012°30'0 0.0
2015-Mar-19 19:33N 38°01' E 012°30'0 0.0
2015-Mar-19 18:33N 38°01' E 012°30'0 0.0
2015-Mar-19 17:33N 38°01' E 012°30'0 0.0
2015-Mar-19 16:34N 38°01' E 012°30'0 0.0
2015-Mar-19 15:33N 38°01' E 012°30'1 1.2
2015-Mar-19 14:33N 37°60' E 012°29'1212.1
2015-Mar-19 13:33N 37°50' E 012°20'3 0.2
2015-Mar-18 23:29N 37°47' E 012°19'1111.5
2015-Mar-18 22:34N 37°57' E 012°25'6 5.9
2015-Mar-18 21:34N 38°01' E 012°30'0 0.0
2015-Mar-18 20:34N 38°01' E 012°30'0 0.0
2015-Mar-18 19:34N 38°01' E 012°30'0 0.0
2015-Mar-18 18:33N 38°01' E 012°30'0 0.0
2015-Mar-18 17:34N 38°01' E 012°30'0 0.0
2015-Mar-18 16:33N 38°01' E 012°30'0 0.0
2015-Mar-18 15:33N 38°01' E 012°30'1 1.3
2015-Mar-18 14:33N 37°60' E 012°29'1111.2
2015-Mar-18 13:33N 37°51' E 012°21'1514.6
2015-Mar-18 12:33N 37°37' E 012°15'9 0.7
2015-Mar-17 23:29N 37°46' E 012°19'1213.2
2015-Mar-17 22:33N 37°57' E 012°25'  

Dump ship's entire track history